Lahaina Weather    as of  Thu 09:54 07/30      Conditions     METAR     Leeward Waters     Hawaiian Islands     Policies
TODAY
Breezy. Sunny with isolated showers. Highs 85-90. East winds 10-20 mph. Chance rain 20%.
TONIGHT
Mostly clear with isolated showers. Lows 70-77. Northeast winds 10-15 mph with gusts-30 mph. Chance rain 20%.
FRIDAY
Sunny with isolated showers. Highs 85-90. East winds 10-15 mph with gusts-30 mph. Chance rain 20%.
FRIDAY NIGHT
Mostly clear with isolated showers. Lows 70-77. Northeast winds 10-15 mph with gusts-30 mph. Chance rain 20%.
SATURDAY
Sunny with isolated showers. Highs 84-89. East winds 10-15 mph with gusts-30 mph. Chance rain 20%.
Maui Satellite
Expected Radar Hazards
Predominant Wx
Radar
Hazard Chart
Windspeed Forecast Wind Gust Forecast Tropical Outlook
Windspeed Chart
Windgust Chart
Satellite

Current Conditions TOP

LocationWeatherTemp (F)Wind
Speed
Wind
Gusts
Wind
Dir
VisibilityDewpointPressure
(mb)
Lahaina - West MauiPartly Cloudy81.012.717.3Northeast15.0071.6--
Lanai CityPartly Cloudy79.09.2--North10.0069.11014.7
KaunakakaiFair82.09.218.4Northeast10.0070.01015.4
KahuluiPartly Cloudy84.017.323.0Northeast10.0070.01015.6
HonoluluPartly Cloudy85.012.7--East10.0071.11015.0
Kailua / KonaFair86.011.5--South10.0071.11013.2

METAR TOP

PHJH 301845Z 04011G15KT 15SM FEW025 SCT040 27/22 A2999
PHNY 301858Z AUTO 36008KT 10SM SCT023 26/21 A3003 RMK AO2 SLP147
PHMK 301854Z 03008G16KT 10SM CLR 28/21 A2999 RMK AO2 SLP154
PHOG 301854Z 05015G20KT 10SM FEW029 SCT035 SCT045 29/21 A2998 RMK
PHNL 301853Z 07011KT 10SM FEW026 SCT039 SCT047 SCT280 29/22 A2998
PHKO 301853Z 18010KT 10SM CLR 30/22 A2992 RMK AO2 SLP132
Tap to learn about METAR'

Leeward Waters Forecasts TOP

MAUI COUNTY LEEWARD WATERS MAALAEA BAY PAILOLO CHANNEL
REST OF TODAY
East winds 20 kt. Wind waves 6 ft.
Headlines
SMALL CRAFT ADVISORY IN EFFECT UNTIL 6 AM HST SUNDAY
Headlines
SMALL CRAFT ADVISORY IN EFFECT UNTIL 6 AM HST SUNDAY
TONIGHT
Northeast winds 20 kt. Wind waves 7 ft. Isolated showers.
REST OF TODAY
Northeast winds-25 kt. Wind waves 6 ft.
REST OF TODAY
East winds-25 kt. Wind waves 9 ft. Isolated showers.
FRIDAY
East winds 20 kt. Wind waves 7 ft. Isolated showers morning.
TONIGHT
Northeast winds-25 kt. Wind waves 7 ft.
TONIGHT
East winds-25 kt. Wind waves 11 ft. Isolated showers evening. Scattered showers after midnight.
FRIDAY NIGHT
Northeast winds 20 kt. Wind waves 6 ft. Isolated showers evening.
FRIDAY
Northeast winds-25 kt. Wind waves 7 ft.
FRIDAY
East winds-25 kt. Wind waves 11 ft. Isolated showers.
SATURDAY
Northeast winds 20 kt. Wind waves 6 ft. Scattered showers morning. Isolated showers afternoon.
FRIDAY NIGHT
Northeast winds-25 kt. Wind waves 6 ft.
FRIDAY NIGHT
East winds-25 kt. Wind waves 9 ft. Isolated showers.

Hawaiian Islands Weather TOP

Update: Tropical depression Eight-E has weakened-a post-tropical cyclone.
Synopsis: A surface high far northeast and a series weak tropical disturbances-the south will maintain locally breezy trade winds through at least the weekend. The trades will bring some showers-windward areas, mostly during nights and mornings. Leeward areas will remain mostly dry except for afternoon showers over the Kona slopes. Remnant moisture from a tropical system may affect the islands over the weekend, bringing muggy weather and possible increased showers for the windward areas, especially for the Big Island.
Discussion: Mainly fair weather continues over the islands this morning,, slight increase in windward showers across the area. There are more low clouds along the windward waters the islands at time, though latest radar data indicate associated showers are rather sparse. Early morning Hilo sounding continues-be more stable, though with deeper low level moisture extending-over eight thousand feet, while Lihue sounding is drier but slightly more unstable. A surface high pressure will remain far northeast the state through the rest the week, while tropical disturbances passing ...
Aviation: No airmets are currently in effect. Mostly VFR cond will prevail today for all sites, though passing low clouds and showers could bring brief MVFR cond-some windward areas and even airmet for mtn obsc. Also, trade winds may become strong enough-warrant airmet tango for low level turb.

Policies TOP

Terms of Service
USE THIS SITE AT YOUR OWN RISK!!! This page is an artistic expression not scientific communication. No warranties expressed or implied. None. Zip. Nada. This entertainment site is a programming exercise for retrieving NOAA/NWS/NASA data and experimenting with layout. No site data are verified. Timeliness not assured. Browsers other than Chrome might be sad.

Privacy
lahainaweather.com (or .org, .net) does NOT request, record nor retain any personally identifiable information. Page views may be counted. Caller's IP address may be logged.